ADDS METAR Data INFO
IDs: Format: Raw Decoded Include TAF

Data at: 2021 UTC 16 Dec 2017

KAVC 162015Z AUTO 23006KT 10SM CLR 08/M04 A3021 RMK AO2 T00841039
KAVC 161955Z AUTO 22008KT 10SM CLR 09/M04 A3022 RMK AO2 T00861039
KAVC 161935Z AUTO 22009KT 10SM CLR 08/M04 A3021 RMK AO2 T00831042
KAVC 161915Z AUTO 25008KT 10SM CLR 08/M04 A3022 RMK AO2 T00801042
KAVC 161855Z AUTO 20009KT 10SM CLR 08/M04 A3022 RMK AO2 T00801041
KAVC 161835Z AUTO 22008KT 10SM CLR 08/M04 A3023 RMK AO2 T00781044
KAVC 161815Z AUTO 21009G15KT 10SM CLR 08/M04 A3023 RMK AO2 T00771044
KAVC 161755Z AUTO 24003G09KT 10SM CLR 08/M05 A3024 RMK AO2 T00751048 10078 21034
KAVC 161735Z AUTO 24009KT 210V280 10SM CLR 07/M05 A3026 RMK AO2 T00731048
KAVC 161720Z AUTO 26004KT 10SM CLR 07/M05 A3026 RMK AO2 T00661051
KAVC 161655Z AUTO 00000KT 10SM CLR 06/M05 A3028 RMK AO2 T00631050
KAVC 161635Z AUTO 26005KT 10SM CLR 06/M05 A3029 RMK AO2 T00561051
KAVC 161615Z AUTO 27004KT 10SM CLR 06/M05 A3030 RMK AO2 T00551049
KAVC 161555Z AUTO 24005KT 10SM CLR 05/M05 A3029 RMK AO2 T00501046
KAVC 161535Z AUTO 24004KT 10SM CLR 04/M05 A3029 RMK AO2 T00421048
KAVC 161515Z AUTO 21006KT 10SM CLR 04/M04 A3028 RMK AO2 T00361044
KAVC 161455Z AUTO 24004KT 10SM CLR 03/M04 A3029 RMK AO2 T00311044
KAVC 161435Z AUTO 24005KT 10SM CLR 02/M05 A3031 RMK AO2 T00211048
KAVC 161415Z AUTO 25004KT 10SM CLR 02/M05 A3030 RMK AO2 T00151048
KAVC 161355Z AUTO 26005KT 10SM CLR 01/M05 A3030 RMK AO2 T00091050
KAVC 161335Z AUTO 25003KT 10SM CLR 00/M05 A3029 RMK AO2 T00011048
KAVC 161315Z AUTO 22003KT 10SM CLR M02/M05 A3028 RMK AO2 T10201055
KAVC 161255Z AUTO 26003KT 10SM CLR M01/M06 A3028 RMK AO2 T10071056
KAVC 161235Z AUTO 28003KT 10SM CLR M01/M06 A3028 RMK AO2 T10131057
KAVC 161215Z AUTO 00000KT 10SM CLR M02/M06 A3028 RMK AO2 T10201058
KAVC 161155Z AUTO 00000KT 10SM CLR M02/M06 A3027 RMK AO2 T10251061 11006 21034
KAVC 161135Z AUTO 00000KT 10SM CLR M03/M06 A3026 RMK AO2 T10331061
KAVC 161115Z AUTO 00000KT 10SM CLR M01/M06 A3024 RMK AO2 T10141065
KAVC 161055Z AUTO 00000KT 10SM CLR M01/M06 A3024 RMK AO2 T10101065
KAVC 161035Z AUTO 25004KT 10SM CLR M01/M06 A3023 RMK AO2 T10101065
KAVC 161015Z AUTO 27004KT 10SM CLR M01/M06 A3022 RMK AO2 T10081065
KAVC 160955Z AUTO 27005KT 10SM CLR M01/M06 A3022 RMK AO2 T10111065
KAVC 160935Z AUTO 26003KT 10SM CLR M01/M06 A3020 RMK AO2 T10141065
KAVC 160915Z AUTO 00000KT 10SM CLR M02/M07 A3020 RMK AO2 T10161066
KAVC 160855Z AUTO 26003KT 10SM CLR M01/M07 A3020 RMK AO2 T10111066
KAVC 160835Z AUTO 25003KT 10SM CLR M01/M07 A3020 RMK AO2 T10101066
KAVC 160815Z AUTO 27003KT 10SM CLR M01/M06 A3019 RMK AO2 T10061065
KAVC 160755Z AUTO 00000KT 10SM CLR M01/M06 A3018 RMK AO2 T10111065
KAVC 160735Z AUTO 00000KT 10SM CLR M01/M06 A3018 RMK AO2 T10081065
KAVC 160715Z AUTO 29003KT 10SM CLR M01/M06 A3018 RMK AO2 T10091064
KAVC 160655Z AUTO 00000KT 10SM CLR M01/M06 A3017 RMK AO2 T10121061
KAVC 160635Z AUTO 00000KT 10SM CLR M01/M06 A3016 RMK AO2 T10111058
KAVC 160615Z AUTO 00000KT 10SM CLR M01/M06 A3015 RMK AO2 T10101057
KAVC 160555Z AUTO 27003KT 10SM CLR M01/M05 A3015 RMK AO2 T10091055 11004 21025
KAVC 160535Z AUTO 26003KT 10SM CLR M01/M05 A3015 RMK AO2 T10101052
KAVC 160515Z AUTO 00000KT 10SM CLR M01/M05 A3014 RMK AO2 T10071051
KAVC 160455Z AUTO 26003KT 10SM CLR M01/M05 A3014 RMK AO2 T10061054 400251025
KAVC 160435Z AUTO 25004KT 10SM CLR 00/M05 A3014 RMK AO2 T10051055
KAVC 160415Z AUTO 00000KT 10SM CLR M01/M05 A3013 RMK AO2 T10091053
KAVC 160355Z AUTO 27003KT 10SM CLR M01/M05 A3012 RMK AO2 T10121052
KAVC 160335Z AUTO 00000KT 10SM CLR M01/M05 A3012 RMK AO2 T10081049
KAVC 160315Z AUTO 00000KT 10SM CLR M01/M04 A3011 RMK AO2 T10061045
KAVC 160255Z AUTO 25003KT 10SM CLR M01/M04 A3011 RMK AO2 T10071043
KAVC 160235Z AUTO 26003KT 10SM CLR 00/M04 A3010 RMK AO2 T10041040
KAVC 160215Z AUTO 25003KT 10SM CLR 00/M04 A3010 RMK AO2 T10051037
KAVC 160155Z AUTO 27003KT 10SM CLR M01/M04 A3010 RMK AO2 T10091038
KAVC 160135Z AUTO 25003KT 10SM CLR M01/M04 A3009 RMK AO2 T10151044
KAVC 160115Z AUTO 00000KT 10SM CLR M01/M04 A3008 RMK AO2 T10101041
KAVC 160055Z AUTO 00000KT 10SM CLR M01/M04 A3007 RMK AO2 T10101041
KAVC 160040Z AUTO 00000KT 10SM CLR M02/M04 A3007 RMK AO2 T10191041
KAVC 160015Z AUTO 22003KT 10SM CLR M01/M04 A3006 RMK AO2 T10131043
KAVC 152355Z AUTO 23004KT 10SM CLR M01/M04 A3006 RMK AO2 T10071044 10025 21007
KAVC 152335Z AUTO 23003KT 10SM CLR 00/M04 A3005 RMK AO2 T10031042
KAVC 152320Z AUTO 00000KT 10SM CLR 00/M04 A3004 RMK AO2 T10011042
KAVC 152255Z AUTO 00000KT 10SM CLR 00/M04 A3002 RMK AO2 T00001041
KAVC 152235Z AUTO 00000KT 10SM CLR 01/M04 A3001 RMK AO2 T00061042
KAVC 152215Z AUTO 27003KT 10SM CLR 01/M04 A3001 RMK AO2 T00111040
KAVC 152155Z AUTO 00000KT 10SM CLR 02/M04 A3000 RMK AO2 T00151040
KAVC 152135Z AUTO 27003KT 10SM CLR 02/M04 A3000 RMK AO2 T00171040
KAVC 152115Z AUTO 27003KT 10SM CLR 02/M04 A3000 RMK AO2 T00201040
KAVC 152055Z AUTO 28004KT 10SM CLR 02/M04 A2998 RMK AO2 T00211040
KAVC 152035Z AUTO 28005KT 10SM CLR 02/M04 A2998 RMK AO2 T00231041
KAVC 152015Z AUTO 28005KT 10SM CLR 02/M04 A2999 RMK AO2 T00211042
KAVC 151955Z AUTO 29004KT 10SM SCT025 02/M04 A2999 RMK AO2 T00201044
KAVC 151935Z AUTO 00000KT 10SM OVC025 02/M04 A2999 RMK AO2 T00221042
KAVC 151915Z AUTO 29003KT 10SM OVC025 02/M04 A2998 RMK AO2 T00211041
KAVC 151855Z AUTO 30006KT 10SM OVC023 02/M04 A2999 RMK AO2 T00211041
KAVC 151835Z AUTO 00000KT 10SM OVC023 02/M04 A2998 RMK AO2 T00221041
KAVC 151815Z AUTO 34003KT 10SM OVC023 02/M04 A2998 RMK AO2 T00201041
KAVC 151755Z AUTO 00000KT 10SM OVC023 02/M04 A2998 RMK AO2 T00191041 10020 21011
KAVC 151735Z AUTO 34003KT 10SM OVC023 02/M04 A2998 RMK AO2 T00191042
KAVC 151715Z AUTO 34003KT 10SM OVC023 02/M04 A2999 RMK AO2 T00171044
KAVC 151655Z AUTO 00000KT 10SM OVC023 02/M04 A3001 RMK AO2 T00161044
KAVC 151640Z AUTO 35003KT 10SM OVC023 02/M04 A3002 RMK AO2 T00151045
KAVC 151615Z AUTO 01003KT 10SM OVC023 02/M04 A3003 RMK AO2 T00161045
KAVC 151555Z AUTO 34004KT 10SM BKN023 OVC030 02/M05 A3003 RMK AO2 T00151049
KAVC 151535Z AUTO 02003KT 10SM BKN023 BKN032 01/M05 A3005 RMK AO2 T00141050
KAVC 151515Z AUTO 04006KT 10SM SCT023 BKN032 01/M05 A3006 RMK AO2 T00091055
KAVC 151455Z AUTO 03003KT 10SM SCT023 SCT029 SCT034 01/M06 A3007 RMK AO2 T00051060
KAVC 151435Z AUTO 03006KT 10SM SCT023 BKN034 01/M06 A3007 RMK AO2 T00051060
KAVC 151415Z AUTO 02005KT 10SM SCT023 00/M06 A3007 RMK AO2 T00001057
KAVC 151355Z AUTO 03004KT 10SM BKN023 00/M05 A3006 RMK AO2 T10011055
KAVC 151335Z AUTO 01003KT 10SM SCT023 00/M05 A3005 RMK AO2 T10031051
KAVC 151315Z AUTO 01006KT 10SM CLR M01/M05 A3005 RMK AO2 T10071054
KAVC 151255Z AUTO 03004KT 10SM CLR M01/M05 A3006 RMK AO2 T10091053
KAVC 151235Z AUTO 02005KT 10SM SCT100 M01/M05 A3007 RMK AO2 T10101054
KAVC 151215Z AUTO 02003KT 10SM SCT025 M01/M05 A3007 RMK AO2 T10101055
KAVC 151155Z AUTO 03004KT 10SM SCT025 M01/M05 A3007 RMK AO2 T10111055 11002 21022
KAVC 151135Z AUTO 02005KT 10SM BKN025 M01/M05 A3007 RMK AO2 T10131055
KAVC 151115Z AUTO 03004KT 10SM OVC025 M01/M05 A3009 RMK AO2 T10131055
KAVC 151055Z AUTO 03004KT 10SM BKN025 M02/M05 A3009 RMK AO2 T10161055
KAVC 151035Z AUTO 02004KT 10SM SCT025 M02/M06 A3009 RMK AO2 T10201057
KAVC 151015Z AUTO 02003KT 10SM SCT025 M02/M06 A3009 RMK AO2 T10211060
KAVC 150955Z AUTO 03003KT 10SM CLR M02/M06 A3009 RMK AO2 T10191060
KAVC 150935Z AUTO 02003KT 10SM CLR M02/M06 A3009 RMK AO2 T10181060
KAVC 150915Z AUTO 03003KT 10SM CLR M02/M06 A3010 RMK AO2 T10171060
KAVC 150855Z AUTO 04004KT 10SM CLR M01/M06 A3010 RMK AO2 T10151057
KAVC 150835Z AUTO 02004KT 10SM CLR M02/M05 A3011 RMK AO2 T10161055